Terminal Aerodrome Forecast
Issued by NWS Twin Cities, MN

Home | Current Version | Previous Version | Text Only | Print | Product List | Glossary Off
Versions: 1 2 3 4 5 6 7 8 9 10 11 12 13 14 15 16 17 18 19 20 21 22 23 24 25 26 27

000
FTUS43 KMPX 242300
TAFEAU
TAF
KEAU 242339Z 2500/2524 19005KT 3SM BR OVC006
     FM250300 23005KT 5SM BR BKN010
     FM250600 27006KT P6SM FEW010 BKN250
     FM251600 29013G21KT P6SM FEW250=

USA.gov is the U.S. government's official web portal to all federal, state and local government web resources and services.